createdAt,value
2018-08-07T00:00:23.118Z,23.90
2018-08-07T00:02:51.978Z,23.80
2018-08-07T00:07:50.562Z,23.80
2018-08-07T00:10:21.844Z,23.90
2018-08-07T00:12:50.024Z,23.90
2018-08-07T00:15:18.361Z,24.00
2018-08-07T00:17:46.556Z,24.00
2018-08-07T00:20:16.036Z,23.90
2018-08-07T00:22:44.748Z,23.90
2018-08-07T00:25:13.235Z,23.80
2018-08-07T00:27:42.135Z,23.80
2018-08-07T00:30:11.701Z,23.80
2018-08-07T00:32:39.901Z,23.80
2018-08-07T00:37:37.384Z,23.70
2018-08-07T00:40:07.369Z,23.80
2018-08-07T00:42:36.549Z,23.80
2018-08-07T00:45:05.961Z,23.70
2018-08-07T00:47:34.188Z,23.70
2018-08-07T00:50:02.413Z,23.60
2018-08-07T00:52:30.597Z,23.50
2018-08-07T00:57:26.734Z,23.50
2018-08-07T00:59:54.897Z,23.40
2018-08-07T01:02:23.088Z,23.40
2018-08-07T01:04:51.264Z,23.40
2018-08-07T01:07:19.456Z,23.40
2018-08-07T01:09:47.649Z,23.30
2018-08-07T01:12:15.846Z,23.20
2018-08-07T01:14:44.033Z,23.20
2018-08-07T01:17:12.217Z,23.20
2018-08-07T01:19:40.397Z,23.10
2018-08-07T01:22:08.577Z,23.10
2018-08-07T01:24:36.761Z,23.10
2018-08-07T01:27:05.023Z,23.20
2018-08-07T01:29:33.166Z,23.20
2018-08-07T01:32:01.366Z,23.10
2018-08-07T01:34:29.561Z,23.10
2018-08-07T01:36:57.763Z,23.00
2018-08-07T01:39:25.945Z,22.90
2018-08-07T01:41:54.126Z,22.80
2018-08-07T01:44:22.319Z,22.80
2018-08-07T01:46:50.540Z,22.80
2018-08-07T01:49:18.730Z,22.80
2018-08-07T01:51:47.110Z,22.70
2018-08-07T01:54:15.487Z,22.70
2018-08-07T01:56:43.673Z,22.70
2018-08-07T01:59:11.884Z,22.60
2018-08-07T02:01:40.074Z,22.60
2018-08-07T02:04:08.281Z,22.50
2018-08-07T02:06:36.540Z,22.50
2018-08-07T02:09:06.544Z,22.50
2018-08-07T02:11:34.920Z,22.50
2018-08-07T02:14:03.138Z,22.50
2018-08-07T02:16:31.323Z,22.50
2018-08-07T02:18:59.524Z,22.50
2018-08-07T02:21:27.725Z,22.40
2018-08-07T02:23:55.903Z,22.40
2018-08-07T02:26:24.096Z,22.40
2018-08-07T02:28:52.344Z,22.30
2018-08-07T02:31:20.481Z,22.40
2018-08-07T02:33:48.655Z,22.40
2018-08-07T02:36:16.903Z,22.40
2018-08-07T02:38:45.101Z,22.40
2018-08-07T02:41:13.320Z,22.30
2018-08-07T02:43:41.516Z,22.30
2018-08-07T02:46:09.928Z,22.30
2018-08-07T02:48:38.130Z,22.30
2018-08-07T02:51:06.381Z,22.30
2018-08-07T02:53:34.578Z,22.30
2018-08-07T02:56:02.788Z,22.20
2018-08-07T02:58:30.985Z,22.20
2018-08-07T03:00:59.172Z,22.20
2018-08-07T03:03:27.356Z,22.10
2018-08-07T03:05:55.557Z,22.10
2018-08-07T03:08:23.748Z,22.00
2018-08-07T03:10:51.927Z,22.00
2018-08-07T03:13:20.112Z,21.90
2018-08-07T03:15:48.302Z,21.80
2018-08-07T03:18:16.503Z,21.70
2018-08-07T03:20:44.689Z,21.70
2018-08-07T03:23:12.911Z,21.70
2018-08-07T03:25:41.092Z,21.70
2018-08-07T03:28:09.275Z,21.70
2018-08-07T03:30:37.468Z,21.70
2018-08-07T03:33:06.135Z,21.70
2018-08-07T03:35:34.339Z,21.70
2018-08-07T03:38:02.541Z,21.70
2018-08-07T03:40:30.710Z,21.70
2018-08-07T03:42:58.887Z,21.60
2018-08-07T03:45:27.070Z,21.60
2018-08-07T03:47:55.276Z,21.50
2018-08-07T03:50:23.464Z,21.50
2018-08-07T03:52:51.664Z,21.50
2018-08-07T03:55:20.160Z,21.40
2018-08-07T03:57:48.644Z,21.40
2018-08-07T04:00:18.974Z,21.40
2018-08-07T04:02:48.243Z,21.50
2018-08-07T04:05:16.570Z,21.40
2018-08-07T04:07:45.104Z,21.40
2018-08-07T04:10:14.757Z,21.30
2018-08-07T04:12:43.075Z,21.30
2018-08-07T04:15:12.947Z,21.20
2018-08-07T04:17:41.754Z,21.20
2018-08-07T04:20:12.564Z,21.20
2018-08-07T04:22:41.031Z,21.20
2018-08-07T04:25:09.275Z,21.30
2018-08-07T04:27:37.501Z,21.40
2018-08-07T04:30:09.634Z,21.40
2018-08-07T04:32:37.896Z,21.40
2018-08-07T04:35:06.433Z,21.40
2018-08-07T04:37:35.020Z,21.40
2018-08-07T04:40:03.586Z,21.40
2018-08-07T04:42:32.204Z,21.40
2018-08-07T04:45:00.442Z,21.40
2018-08-07T04:47:28.904Z,21.40
2018-08-07T04:49:57.268Z,21.40
2018-08-07T04:52:25.708Z,21.40
2018-08-07T04:54:54.104Z,21.40
2018-08-07T04:57:23.500Z,21.40
2018-08-07T04:59:52.044Z,21.50
2018-08-07T05:02:20.887Z,21.50
2018-08-07T05:04:49.190Z,21.60
2018-08-07T05:09:45.524Z,21.70
2018-08-07T05:12:13.980Z,21.70
2018-08-07T05:14:42.520Z,21.80
2018-08-07T05:17:11.476Z,21.80
2018-08-07T05:19:39.727Z,21.80
2018-08-07T05:22:08.027Z,21.90
2018-08-07T05:24:36.211Z,22.00
2018-08-07T05:29:32.391Z,22.00
2018-08-07T05:32:00.589Z,22.00
2018-08-07T05:34:28.880Z,22.00
2018-08-07T05:36:57.092Z,22.00
2018-08-07T05:39:25.412Z,22.00
2018-08-07T05:41:53.780Z,22.10
2018-08-07T05:44:22.090Z,22.20
2018-08-07T05:46:50.416Z,22.30
2018-08-07T05:49:18.675Z,22.30
2018-08-07T05:51:46.957Z,22.30
2018-08-07T05:54:15.466Z,22.40
2018-08-07T05:56:44.006Z,22.50
2018-08-07T05:59:12.368Z,22.50
2018-08-07T06:01:41.573Z,22.50
2018-08-07T06:04:10.008Z,22.50
2018-08-07T06:06:39.169Z,22.50
2018-08-07T06:09:08.221Z,22.60
2018-08-07T06:11:36.576Z,22.60
2018-08-07T06:14:05.125Z,22.70
2018-08-07T06:16:33.420Z,22.80
2018-08-07T06:19:02.000Z,22.90
2018-08-07T06:21:30.636Z,23.00
2018-08-07T06:23:58.916Z,23.10
2018-08-07T06:26:27.163Z,23.10
2018-08-07T06:28:55.458Z,23.20
2018-08-07T06:31:23.857Z,23.20
2018-08-07T06:33:52.169Z,23.30
2018-08-07T06:36:20.722Z,23.40
2018-08-07T06:38:49.068Z,23.40
2018-08-07T06:41:17.580Z,23.50
2018-08-07T06:43:46.052Z,23.60
2018-08-07T06:46:14.575Z,23.70
2018-08-07T06:48:43.050Z,23.80
2018-08-07T06:51:11.435Z,23.80
2018-08-07T06:53:39.727Z,23.90
2018-08-07T06:56:07.993Z,24.00
2018-08-07T06:58:36.193Z,24.00
2018-08-07T07:01:04.414Z,24.10
2018-08-07T07:03:32.591Z,24.20
2018-08-07T07:08:28.753Z,24.30
2018-08-07T07:10:56.952Z,24.40
2018-08-07T07:13:25.144Z,24.50
2018-08-07T07:15:53.485Z,24.60
2018-08-07T07:18:21.675Z,24.70
2018-08-07T07:20:49.905Z,24.70
2018-08-07T07:23:18.164Z,24.80
2018-08-07T07:25:46.628Z,24.90
2018-08-07T07:28:14.833Z,25.00
2018-08-07T07:33:11.010Z,25.10
2018-08-07T07:35:39.190Z,25.20
2018-08-07T07:38:07.377Z,25.30
2018-08-07T07:40:35.594Z,25.30
2018-08-07T07:43:04.049Z,25.40
2018-08-07T07:45:32.257Z,25.50
2018-08-07T07:50:28.464Z,25.60
2018-08-07T07:52:56.700Z,25.70
2018-08-07T07:55:24.920Z,25.70
2018-08-07T07:57:53.152Z,25.80
2018-08-07T08:00:23.258Z,25.90
2018-08-07T08:02:51.711Z,26.00
2018-08-07T08:05:20.608Z,26.00
2018-08-07T08:07:48.737Z,26.10
2018-08-07T08:10:16.945Z,26.20
2018-08-07T08:12:45.135Z,26.30
2018-08-07T08:15:15.331Z,26.40
2018-08-07T08:17:44.452Z,26.40
2018-08-07T08:20:16.067Z,26.50
2018-08-07T08:22:44.264Z,26.50
2018-08-07T08:25:12.508Z,26.60
2018-08-07T08:27:40.932Z,26.60
2018-08-07T08:30:12.452Z,26.70
2018-08-07T08:32:40.700Z,26.80
2018-08-07T08:35:11.547Z,26.80
2018-08-07T08:37:40.096Z,26.90
2018-08-07T08:40:10.296Z,26.90
2018-08-07T08:42:39.497Z,27.00
2018-08-07T08:45:10.759Z,27.20
2018-08-07T08:47:39.221Z,27.20
2018-08-07T08:50:09.453Z,27.30
2018-08-07T08:52:37.715Z,27.40
2018-08-07T08:55:06.333Z,27.40
2018-08-07T08:57:34.914Z,27.40
2018-08-07T09:00:03.132Z,27.50
2018-08-07T09:02:31.392Z,27.60
2018-08-07T09:04:59.636Z,27.70
2018-08-07T09:07:27.869Z,27.70
2018-08-07T09:09:56.069Z,27.80
2018-08-07T09:12:24.260Z,27.90
2018-08-07T09:14:52.468Z,28.00
2018-08-07T09:17:20.691Z,28.00
2018-08-07T09:22:17.032Z,28.20
2018-08-07T09:24:45.237Z,28.20
2018-08-07T09:27:13.439Z,28.20
2018-08-07T09:29:41.647Z,28.30
2018-08-07T09:32:09.863Z,28.40
2018-08-07T09:34:38.062Z,28.50
2018-08-07T09:37:06.250Z,28.50
2018-08-07T09:39:34.497Z,28.60
2018-08-07T09:42:02.657Z,28.70
2018-08-07T09:44:30.848Z,28.70
2018-08-07T09:46:59.105Z,28.80
2018-08-07T09:49:27.283Z,28.90
2018-08-07T09:51:55.472Z,29.00
2018-08-07T09:54:24.239Z,29.10
2018-08-07T09:56:52.403Z,29.10
2018-08-07T09:59:20.643Z,29.20
2018-08-07T10:01:54.194Z,29.20
2018-08-07T10:04:22.391Z,29.30
2018-08-07T10:06:50.612Z,29.30
2018-08-07T10:09:18.835Z,29.40
2018-08-07T10:11:47.069Z,29.40
2018-08-07T10:14:15.260Z,29.50
2018-08-07T10:16:43.460Z,29.60
2018-08-07T10:19:11.689Z,29.70
2018-08-07T10:21:39.904Z,29.70
2018-08-07T10:24:08.163Z,29.80
2018-08-07T10:26:36.377Z,29.80
2018-08-07T10:29:04.580Z,29.90
2018-08-07T10:34:00.757Z,30.00
2018-08-07T10:36:29.130Z,30.00
2018-08-07T10:38:57.305Z,30.00
2018-08-07T10:41:25.539Z,30.00
2018-08-07T10:43:53.906Z,29.90
2018-08-07T10:46:22.080Z,29.80
2018-08-07T10:48:50.292Z,29.70
2018-08-07T10:51:18.501Z,29.80
2018-08-07T10:53:46.683Z,29.90
2018-08-07T10:56:14.889Z,30.00
2018-08-07T10:58:43.126Z,30.10
2018-08-07T11:01:11.351Z,30.20
2018-08-07T11:06:07.517Z,30.40
2018-08-07T11:08:35.900Z,30.40
2018-08-07T11:11:04.147Z,30.50
2018-08-07T11:13:32.331Z,30.50
2018-08-07T11:16:00.529Z,30.70
2018-08-07T11:18:28.720Z,30.70
2018-08-07T11:20:56.921Z,30.80
2018-08-07T11:23:25.164Z,30.90
2018-08-07T11:25:53.559Z,30.90
2018-08-07T11:28:21.755Z,30.90
2018-08-07T11:30:49.957Z,30.90
2018-08-07T11:33:18.148Z,30.90
2018-08-07T11:35:46.355Z,30.80
2018-08-07T11:38:14.535Z,30.70
2018-08-07T11:40:42.732Z,30.70
2018-08-07T11:43:10.953Z,30.60
2018-08-07T11:45:39.144Z,30.60
2018-08-07T11:48:07.359Z,30.60
2018-08-07T11:50:35.566Z,30.60
2018-08-07T11:53:04.259Z,30.70
2018-08-07T11:55:32.458Z,30.80
2018-08-07T11:58:00.641Z,30.80
2018-08-07T12:00:34.191Z,30.90
2018-08-07T12:03:02.596Z,30.90
2018-08-07T12:05:31.063Z,31.00
2018-08-07T12:07:59.279Z,31.00
2018-08-07T12:10:27.823Z,31.00
2018-08-07T12:12:56.233Z,31.00
2018-08-07T12:15:25.271Z,31.10
2018-08-07T12:17:53.769Z,31.10
2018-08-07T12:20:21.959Z,31.20
2018-08-07T12:22:51.093Z,31.40
2018-08-07T12:25:19.937Z,31.50
2018-08-07T12:27:48.206Z,31.60
2018-08-07T12:30:21.377Z,31.70
2018-08-07T12:32:49.593Z,31.80
2018-08-07T12:35:17.802Z,31.80
2018-08-07T12:37:46.376Z,31.80
2018-08-07T12:40:20.011Z,31.70
2018-08-07T12:42:48.436Z,31.70
2018-08-07T12:45:16.642Z,31.60
2018-08-07T12:47:45.248Z,31.50
2018-08-07T12:50:14.435Z,31.50
2018-08-07T12:52:42.757Z,31.40
2018-08-07T12:55:13.460Z,31.40
2018-08-07T12:57:41.691Z,31.30
2018-08-07T13:00:16.968Z,31.30
2018-08-07T13:02:45.277Z,31.30
2018-08-07T13:05:13.652Z,31.20
2018-08-07T13:07:41.833Z,31.10
2018-08-07T13:10:13.017Z,31.00
2018-08-07T13:12:41.839Z,30.80
2018-08-07T13:15:42.841Z,30.50
2018-08-07T13:18:11.031Z,30.40
2018-08-07T13:20:39.225Z,30.30
2018-08-07T13:23:07.630Z,30.30
2018-08-07T13:25:35.832Z,30.20
2018-08-07T13:28:04.024Z,30.20
2018-08-07T13:30:32.250Z,30.20
2018-08-07T13:33:00.431Z,30.20
2018-08-07T13:35:28.627Z,30.30
2018-08-07T13:37:56.824Z,30.30
2018-08-07T13:40:25.431Z,30.30
2018-08-07T13:42:53.864Z,30.30
2018-08-07T13:45:23.341Z,30.40
2018-08-07T13:47:51.575Z,30.40
2018-08-07T13:50:21.200Z,30.50
2018-08-07T13:52:50.065Z,30.60
2018-08-07T13:55:19.184Z,30.70
2018-08-07T13:57:47.665Z,30.80
2018-08-07T14:00:22.699Z,30.90
2018-08-07T14:02:51.502Z,31.00
2018-08-07T14:05:20.475Z,31.10
2018-08-07T14:07:50.000Z,31.10
2018-08-07T14:10:18.997Z,31.20
2018-08-07T14:12:47.256Z,31.20
2018-08-07T14:15:16.456Z,31.30
2018-08-07T14:17:44.958Z,31.50
2018-08-07T14:20:14.024Z,31.50
2018-08-07T14:22:42.535Z,31.60
2018-08-07T14:25:20.848Z,31.70
2018-08-07T14:27:49.091Z,31.80
2018-08-07T14:30:19.653Z,31.90
2018-08-07T14:32:47.940Z,32.00
2018-08-07T14:35:16.142Z,32.00
2018-08-07T14:37:45.397Z,31.90
2018-08-07T14:40:15.317Z,31.90
2018-08-07T14:42:44.735Z,32.00
2018-08-07T14:45:14.006Z,31.90
2018-08-07T14:47:42.925Z,31.90
2018-08-07T14:50:13.523Z,31.80
2018-08-07T14:52:41.728Z,31.70
2018-08-07T14:55:11.015Z,31.70
2018-08-07T14:57:39.689Z,31.70
2018-08-07T15:00:10.409Z,31.60
2018-08-07T15:02:38.711Z,31.60
2018-08-07T15:05:07.124Z,31.50
2018-08-07T15:07:35.525Z,31.60
2018-08-07T15:10:04.823Z,31.60
2018-08-07T15:12:33.165Z,31.60
2018-08-07T15:15:01.332Z,31.50
2018-08-07T15:17:29.577Z,31.60
2018-08-07T15:19:57.808Z,31.60
2018-08-07T15:22:26.088Z,31.70
2018-08-07T15:24:54.284Z,31.80
2018-08-07T15:27:22.504Z,31.80
2018-08-07T15:29:50.701Z,31.80
2018-08-07T15:32:18.879Z,31.80
2018-08-07T15:34:47.120Z,31.80
2018-08-07T15:37:15.336Z,31.70
2018-08-07T15:39:43.543Z,31.60
2018-08-07T15:42:11.772Z,31.50
2018-08-07T15:44:39.995Z,31.40
2018-08-07T15:47:08.272Z,31.30
2018-08-07T15:49:36.523Z,31.30
2018-08-07T15:52:04.767Z,31.20
2018-08-07T15:54:32.971Z,31.10
2018-08-07T15:57:01.170Z,31.10
2018-08-07T15:59:29.376Z,31.10
2018-08-07T16:01:57.682Z,31.10
2018-08-07T16:04:25.868Z,31.10
2018-08-07T16:06:54.081Z,31.20
2018-08-07T16:09:22.395Z,31.20
2018-08-07T16:11:50.727Z,31.20
2018-08-07T16:14:18.976Z,31.20
2018-08-07T16:16:47.211Z,31.20
2018-08-07T16:19:15.387Z,31.10
2018-08-07T16:21:43.581Z,31.20
2018-08-07T16:24:12.020Z,31.20
2018-08-07T16:26:40.243Z,31.20
2018-08-07T16:29:08.553Z,31.20
2018-08-07T16:31:36.777Z,31.20
2018-08-07T16:34:05.348Z,31.20
2018-08-07T16:36:33.528Z,31.30
2018-08-07T16:39:01.729Z,31.20
2018-08-07T16:41:30.031Z,31.20
2018-08-07T16:43:58.171Z,31.20
2018-08-07T16:46:26.399Z,31.20
2018-08-07T16:48:54.621Z,31.20
2018-08-07T16:51:22.913Z,31.20
2018-08-07T16:53:51.096Z,31.20
2018-08-07T16:56:19.293Z,31.30
2018-08-07T16:58:47.513Z,31.30
2018-08-07T17:01:15.733Z,31.30
2018-08-07T17:03:43.924Z,31.20
2018-08-07T17:06:12.207Z,31.30
2018-08-07T17:08:40.493Z,31.30
2018-08-07T17:11:08.797Z,31.20
2018-08-07T17:13:36.997Z,31.20
2018-08-07T17:16:05.468Z,31.20
2018-08-07T17:18:33.673Z,31.20
2018-08-07T17:21:01.949Z,31.10
2018-08-07T17:23:30.175Z,31.10
2018-08-07T17:25:58.369Z,31.00
2018-08-07T17:28:26.568Z,31.00
2018-08-07T17:30:54.801Z,31.00
2018-08-07T17:33:23.054Z,30.90
2018-08-07T17:35:51.267Z,30.90
2018-08-07T17:38:19.467Z,30.80
2018-08-07T17:40:47.664Z,30.80
2018-08-07T17:43:15.836Z,30.70
2018-08-07T17:45:44.041Z,30.60
2018-08-07T17:48:12.460Z,30.60
2018-08-07T17:50:40.640Z,30.60
2018-08-07T17:53:08.856Z,30.50
2018-08-07T17:55:37.035Z,30.50
2018-08-07T17:58:05.276Z,30.40
2018-08-07T18:00:33.475Z,30.30
2018-08-07T18:03:01.809Z,30.30
2018-08-07T18:05:30.008Z,30.30
2018-08-07T18:07:58.596Z,30.20
2018-08-07T18:10:26.778Z,30.20
2018-08-07T18:12:55.047Z,30.10
2018-08-07T18:15:23.721Z,30.10
2018-08-07T18:17:52.307Z,30.10
2018-08-07T18:20:22.475Z,30.00
2018-08-07T18:22:50.669Z,30.00
2018-08-07T18:25:18.886Z,29.90
2018-08-07T18:27:47.060Z,29.90
2018-08-07T18:30:16.952Z,29.90
2018-08-07T18:32:45.396Z,29.80
2018-08-07T18:35:15.255Z,29.80
2018-08-07T18:37:43.475Z,29.70
2018-08-07T18:40:11.667Z,29.70
2018-08-07T18:42:39.863Z,29.60
2018-08-07T18:45:09.992Z,29.50
2018-08-07T18:47:38.875Z,29.40
2018-08-07T18:50:08.188Z,29.30
2018-08-07T18:52:36.459Z,29.30
2018-08-07T18:55:06.752Z,29.20
2018-08-07T18:57:34.952Z,29.10
2018-08-07T19:00:03.217Z,29.10
2018-08-07T19:02:31.396Z,29.00
2018-08-07T19:04:59.580Z,29.00
2018-08-07T19:07:27.859Z,28.90
2018-08-07T19:09:56.068Z,28.90
2018-08-07T19:12:24.262Z,28.80
2018-08-07T19:14:52.449Z,28.80
2018-08-07T19:17:20.675Z,28.70
2018-08-07T19:19:48.903Z,28.70
2018-08-07T19:22:17.121Z,28.70
2018-08-07T19:24:45.547Z,28.60
2018-08-07T19:27:13.728Z,28.60
2018-08-07T19:29:42.040Z,28.60
2018-08-07T19:32:10.247Z,28.50
2018-08-07T19:34:38.519Z,28.50
2018-08-07T19:37:07.071Z,28.40
2018-08-07T19:39:35.329Z,28.40
2018-08-07T19:42:03.545Z,28.30
2018-08-07T19:44:31.755Z,28.30
2018-08-07T19:47:00.044Z,28.30
2018-08-07T19:49:28.274Z,28.20
2018-08-07T19:51:56.472Z,28.30
2018-08-07T19:54:24.671Z,28.20
2018-08-07T19:56:52.864Z,28.20
2018-08-07T19:59:21.095Z,28.10
2018-08-07T20:01:49.307Z,28.10
2018-08-07T20:04:17.495Z,28.00
2018-08-07T20:06:45.699Z,28.10
2018-08-07T20:09:13.879Z,28.00
2018-08-07T20:11:42.085Z,28.00
2018-08-07T20:14:10.281Z,28.00
2018-08-07T20:16:38.479Z,27.90
2018-08-07T20:19:06.656Z,27.90
2018-08-07T20:21:34.911Z,27.90
2018-08-07T20:24:03.161Z,27.80
2018-08-07T20:26:31.415Z,27.80
2018-08-07T20:28:59.601Z,27.70
2018-08-07T20:31:27.802Z,27.70
2018-08-07T20:33:55.993Z,27.70
2018-08-07T20:36:24.196Z,27.70
2018-08-07T20:38:52.404Z,27.60
2018-08-07T20:41:20.590Z,27.60
2018-08-07T20:43:48.776Z,27.60
2018-08-07T20:46:16.976Z,27.50
2018-08-07T20:48:45.181Z,27.50
2018-08-07T20:51:13.396Z,27.40
2018-08-07T20:53:41.617Z,27.40
2018-08-07T20:56:09.805Z,27.30
2018-08-07T20:58:38.000Z,27.30
2018-08-07T21:01:06.198Z,27.30
2018-08-07T21:03:34.411Z,27.20
2018-08-07T21:06:02.628Z,27.20
2018-08-07T21:08:30.836Z,27.20
2018-08-07T21:10:59.020Z,27.10
2018-08-07T21:13:27.224Z,27.10
2018-08-07T21:15:55.437Z,27.10
2018-08-07T21:18:23.687Z,27.00
2018-08-07T21:20:51.892Z,26.90
2018-08-07T21:23:20.093Z,26.80
2018-08-07T21:25:48.271Z,26.80
2018-08-07T21:28:16.463Z,26.70
2018-08-07T21:30:44.671Z,26.60
2018-08-07T21:33:12.911Z,26.60
2018-08-07T21:35:41.111Z,26.60
2018-08-07T21:38:09.309Z,26.50
2018-08-07T21:40:37.484Z,26.50
2018-08-07T21:43:05.975Z,26.50
2018-08-07T21:45:34.153Z,26.50
2018-08-07T21:48:02.404Z,26.40
2018-08-07T21:50:30.616Z,26.40
2018-08-07T21:52:58.799Z,26.30
2018-08-07T21:55:27.031Z,26.30
2018-08-07T21:57:55.273Z,26.20
2018-08-07T22:00:56.111Z,26.20
2018-08-07T22:03:24.315Z,26.10
2018-08-07T22:05:52.521Z,26.00
2018-08-07T22:08:20.712Z,25.90
2018-08-07T22:10:48.909Z,25.90
2018-08-07T22:13:17.147Z,25.90
2018-08-07T22:15:45.362Z,25.80
2018-08-07T22:18:13.541Z,25.70
2018-08-07T22:20:41.768Z,25.70
2018-08-07T22:23:09.966Z,25.70
2018-08-07T22:25:38.279Z,25.70
2018-08-07T22:28:06.560Z,25.60
2018-08-07T22:30:34.847Z,25.60
2018-08-07T22:33:03.042Z,25.50
2018-08-07T22:35:31.250Z,25.40
2018-08-07T22:37:59.448Z,25.40
2018-08-07T22:40:28.012Z,25.40
2018-08-07T22:42:56.199Z,25.40
2018-08-07T22:45:24.398Z,25.40
2018-08-07T22:47:52.600Z,25.30
2018-08-07T22:50:20.834Z,25.30
2018-08-07T22:52:49.057Z,25.20
2018-08-07T22:55:18.776Z,25.20
2018-08-07T22:57:46.979Z,25.20
2018-08-07T23:00:16.640Z,25.20
2018-08-07T23:02:51.151Z,25.10
2018-08-07T23:05:19.708Z,25.10
2018-08-07T23:07:47.922Z,25.10
2018-08-07T23:10:18.164Z,25.10
2018-08-07T23:12:46.355Z,25.10
2018-08-07T23:15:16.561Z,25.10
2018-08-07T23:17:45.129Z,25.10
2018-08-07T23:20:14.713Z,25.10
2018-08-07T23:22:42.907Z,25.10
2018-08-07T23:25:11.597Z,25.10
2018-08-07T23:27:39.800Z,25.10
2018-08-07T23:30:13.814Z,25.00
2018-08-07T23:32:42.224Z,24.90
2018-08-07T23:35:10.852Z,24.90
2018-08-07T23:37:39.059Z,24.90
2018-08-07T23:40:08.960Z,24.90
2018-08-07T23:42:37.176Z,24.80
2018-08-07T23:45:06.180Z,24.80
2018-08-07T23:47:34.579Z,24.70
2018-08-07T23:50:02.854Z,24.70
2018-08-07T23:52:31.263Z,24.80
2018-08-07T23:54:59.716Z,24.80
2018-08-07T23:57:27.912Z,24.70
2018-08-07T23:59:56.105Z,24.60
